Terminal Aerodrome Forecast
Issued by NWS

Home | Current Version | Previous Version | Text Only | Print | Product List | Glossary On
Versions: 1 2 3 4 5 6 7 8 9 10 11 12 13 14 15 16 17
192
FTUS43 KJKL 051730
TAFSJS
TAF
KSJS 051730Z 0518/0618 31006KT P6SM VCSH BKN035 OVC045
     FM052300 30007KT 3SM -SHRA OVC025
     FM060400 31004KT P6SM VCSH OVC030
     FM060600 33004KT P6SM OVC045=

USA.gov is the U.S. government's official web portal to all federal, state and local government web resources and services.